Time;durP1;ratioP1;P1;durP2;ratioP2;P2;SDS_P1;SDS_P2;PMS_P1;PMS_P2;Temp;Humidity;BMP_temperature;BMP_pressure;BME280_temperature;BME280_humidity;BME280_pressure;Samples;Min_cycle;Max_cycle;Signal;HPM_P1;HPM_P2
2024/02/18 00:02:02;;;;;;;1.70;0.70;;;10.10;99.90;;;;;;6304941;22;20379;-88
2024/02/18 00:04:31;;;;;;;1.40;0.63;;;10.10;99.90;;;;;;6304771;22;20003;-88
2024/02/18 00:06:57;;;;;;;3.08;0.90;;;10.10;99.90;;;;;;6303671;22;20007;-88
2024/02/18 00:09:22;;;;;;;2.67;0.63;;;10.10;99.90;;;;;;6277242;22;20003;-89
2024/02/18 00:11:48;;;;;;;2.08;0.80;;;10.10;99.90;;;;;;6303342;22;20082;-88
2024/02/18 00:14:14;;;;;;;2.38;0.60;;;10.10;99.90;;;;;;6277515;22;20007;-88
2024/02/18 00:16:39;;;;;;;3.95;0.65;;;10.10;99.90;;;;;;6302836;22;20003;-88
2024/02/18 00:19:05;;;;;;;2.13;0.90;;;10.00;99.90;;;;;;6303825;22;20007;-88
2024/02/18 00:21:31;;;;;;;1.35;0.50;;;10.00;99.90;;;;;;6277362;22;20003;-88
2024/02/18 00:23:57;;;;;;;2.38;0.50;;;10.00;99.90;;;;;;6277595;22;20086;-87
2024/02/18 00:26:23;;;;;;;4.57;1.25;;;10.00;99.90;;;;;;6303535;22;20365;-88
2024/02/18 00:28:48;;;;;;;2.97;0.90;;;10.00;99.90;;;;;;6277918;22;20351;-88
2024/02/18 00:31:14;;;;;;;2.65;0.70;;;10.00;99.90;;;;;;6276927;22;20011;-88
2024/02/18 00:33:40;;;;;;;3.97;0.63;;;9.90;99.90;;;;;;6277602;22;20007;-88
2024/02/18 00:36:06;;;;;;;2.88;0.80;;;10.00;99.90;;;;;;6304802;22;20444;-88
2024/02/18 00:38:32;;;;;;;2.28;0.63;;;10.00;99.90;;;;;;6277316;22;20068;-87
2024/02/18 00:40:58;;;;;;;4.00;1.05;;;10.00;99.90;;;;;;6305054;22;20408;-88
2024/02/18 00:43:24;;;;;;;3.33;0.60;;;10.00;99.90;;;;;;6302711;22;20129;-87
2024/02/18 00:45:49;;;;;;;2.40;0.65;;;9.90;99.90;;;;;;6277288;22;20008;-87
2024/02/18 00:48:16;;;;;;;2.85;0.65;;;10.00;99.90;;;;;;6302900;22;20438;-87
2024/02/18 00:50:42;;;;;;;4.47;0.52;;;10.00;99.90;;;;;;6277514;22;20011;-87
2024/02/18 00:53:08;;;;;;;1.55;0.60;;;10.00;99.90;;;;;;6302840;22;20057;-87
2024/02/18 00:55:33;;;;;;;1.58;0.50;;;10.00;99.90;;;;;;6302732;22;20007;-87
2024/02/18 00:57:59;;;;;;;2.75;0.60;;;10.00;99.90;;;;;;6277115;22;20063;-87
2024/02/18 01:00:25;;;;;;;3.25;0.60;;;10.00;99.90;;;;;;6277344;22;20010;-88
2024/02/18 01:02:50;;;;;;;3.10;0.80;;;10.00;99.90;;;;;;6303127;22;20007;-88
2024/02/18 01:05:16;;;;;;;2.30;0.80;;;10.00;99.90;;;;;;6302602;22;20003;-87
2024/02/18 01:07:42;;;;;;;2.90;0.60;;;9.90;99.90;;;;;;6277322;22;20011;-88
2024/02/18 01:10:09;;;;;;;3.15;0.60;;;9.90;99.90;;;;;;6277348;22;20011;-88
2024/02/18 01:12:35;;;;;;;2.90;0.70;;;9.90;99.90;;;;;;6276882;22;20007;-88
2024/02/18 01:15:00;;;;;;;1.25;0.52;;;9.90;99.90;;;;;;6276817;22;20007;-88
2024/02/18 01:17:26;;;;;;;2.50;0.80;;;9.80;99.90;;;;;;6276639;22;20470;-88
2024/02/18 01:19:57;;;;;;;1.60;0.70;;;9.80;99.90;;;;;;6304340;22;20447;-88
2024/02/18 01:22:23;;;;;;;1.83;0.68;;;9.90;99.90;;;;;;6276607;22;20085;-87
2024/02/18 01:24:49;;;;;;;2.60;0.47;;;9.80;99.90;;;;;;6276820;22;20031;-88
2024/02/18 01:27:15;;;;;;;1.52;0.60;;;9.80;99.90;;;;;;6302508;22;20069;-87
2024/02/18 01:29:40;;;;;;;2.42;0.60;;;9.70;99.90;;;;;;6276511;22;20003;-87
2024/02/18 01:32:06;;;;;;;2.03;0.50;;;9.70;99.90;;;;;;6302468;22;20028;-87
2024/02/18 01:34:32;;;;;;;2.67;0.60;;;9.70;99.90;;;;;;6303875;22;20329;-88
2024/02/18 01:36:58;;;;;;;3.55;0.50;;;9.70;99.90;;;;;;6304030;22;20019;-87
2024/02/18 01:39:23;;;;;;;2.72;0.75;;;9.70;99.90;;;;;;6303508;22;20018;-88
2024/02/18 01:41:49;;;;;;;4.18;0.63;;;9.70;99.90;;;;;;6302624;22;20019;-88
2024/02/18 01:44:15;;;;;;;1.60;0.50;;;9.70;99.90;;;;;;6302413;22;20369;-88
2024/02/18 01:46:42;;;;;;;2.60;0.50;;;9.60;99.90;;;;;;6302639;22;20050;-88
2024/02/18 01:49:08;;;;;;;1.45;0.50;;;9.60;99.90;;;;;;6302750;22;20003;-88
2024/02/18 01:51:34;;;;;;;1.20;0.43;;;9.60;99.90;;;;;;6276353;22;20033;-88
2024/02/18 01:54:03;;;;;;;2.50;0.60;;;9.60;99.90;;;;;;6304184;22;20033;-89
2024/02/18 01:56:29;;;;;;;2.45;0.60;;;9.60;99.90;;;;;;6301951;22;20014;-88
2024/02/18 01:58:55;;;;;;;2.50;0.43;;;9.70;99.90;;;;;;6277148;22;20033;-89
2024/02/18 02:01:21;;;;;;;1.70;0.57;;;9.60;99.90;;;;;;6276745;22;20008;-89
2024/02/18 02:03:47;;;;;;;3.20;0.65;;;9.70;99.90;;;;;;6277267;22;20011;-87
2024/02/18 02:06:15;;;;;;;3.40;0.60;;;9.70;99.90;;;;;;6302547;22;20121;-88
2024/02/18 02:08:40;;;;;;;3.20;0.60;;;9.70;99.90;;;;;;6276309;22;20011;-88
2024/02/18 02:11:06;;;;;;;3.10;0.70;;;9.70;99.90;;;;;;6302790;22;20354;-88
2024/02/18 02:13:32;;;;;;;2.55;0.43;;;9.70;99.90;;;;;;6302457;22;20003;-88
2024/02/18 02:15:58;;;;;;;2.08;0.47;;;9.70;99.90;;;;;;6276584;22;20007;-88
2024/02/18 02:18:24;;;;;;;2.67;0.60;;;9.70;99.90;;;;;;6301584;22;20015;-88
2024/02/18 02:20:50;;;;;;;3.55;0.60;;;9.80;99.90;;;;;;6302730;22;19996;-89
2024/02/18 02:23:16;;;;;;;4.10;0.98;;;9.80;99.90;;;;;;6276231;22;20010;-89
2024/02/18 02:25:42;;;;;;;2.50;0.60;;;9.90;99.90;;;;;;6302585;22;20074;-89
2024/02/18 02:28:11;;;;;;;3.33;0.90;;;9.90;99.90;;;;;;6275968;22;20066;-88
2024/02/18 02:30:37;;;;;;;3.65;0.70;;;9.90;99.90;;;;;;6276716;22;20030;-89
2024/02/18 02:33:02;;;;;;;4.00;0.90;;;9.90;99.90;;;;;;6276317;22;20007;-89
2024/02/18 02:35:28;;;;;;;5.13;0.80;;;9.90;99.90;;;;;;6275999;22;20003;-87
2024/02/18 02:37:57;;;;;;;4.30;1.10;;;9.90;99.90;;;;;;6302113;22;20090;-89
2024/02/18 02:40:23;;;;;;;2.13;0.63;;;10.00;99.90;;;;;;6277149;22;20011;-88
2024/02/18 02:42:49;;;;;;;2.20;0.70;;;9.90;99.90;;;;;;6277130;22;20462;-89
2024/02/18 02:45:15;;;;;;;2.70;0.70;;;10.00;99.90;;;;;;6278069;22;20010;-89
2024/02/18 02:47:40;;;;;;;3.40;0.77;;;10.00;99.90;;;;;;6304133;22;20382;-89
2024/02/18 02:50:06;;;;;;;1.67;0.60;;;9.90;99.90;;;;;;6304213;22;20007;-89
2024/02/18 02:52:32;;;;;;;3.30;0.75;;;9.90;99.90;;;;;;6304300;22;20202;-90
2024/02/18 02:54:58;;;;;;;3.45;0.70;;;9.90;99.90;;;;;;6278289;22;20007;-89
2024/02/18 02:57:24;;;;;;;1.83;0.80;;;9.90;99.90;;;;;;6277928;22;20046;-90
2024/02/18 02:59:50;;;;;;;3.25;0.85;;;10.00;99.90;;;;;;6304199;22;20006;-90
2024/02/18 03:02:15;;;;;;;5.50;1.05;;;10.00;99.90;;;;;;6278553;22;20100;-89
2024/02/18 03:04:41;;;;;;;2.78;0.95;;;9.90;99.90;;;;;;6278272;22;20018;-90
2024/02/18 03:07:07;;;;;;;5.90;1.08;;;10.00;99.90;;;;;;6304495;22;20086;-90
2024/02/18 03:09:32;;;;;;;3.38;1.10;;;10.00;99.90;;;;;;6278405;22;20012;-90
2024/02/18 03:11:58;;;;;;;2.15;0.80;;;10.00;99.90;;;;;;6305695;22;19999;-90
2024/02/18 03:14:24;;;;;;;3.80;0.70;;;9.90;99.90;;;;;;6277503;22;20007;-89
2024/02/18 03:16:49;;;;;;;3.13;0.65;;;9.90;99.90;;;;;;6277616;22;20043;-91
2024/02/18 03:19:15;;;;;;;2.08;0.90;;;9.90;99.90;;;;;;6303921;22;20518;-90
2024/02/18 03:21:41;;;;;;;1.70;0.60;;;9.90;99.90;;;;;;6305997;22;20048;-90
2024/02/18 03:24:06;;;;;;;2.38;0.65;;;9.90;99.90;;;;;;6278071;22;20007;-89
2024/02/18 03:26:34;;;;;;;3.53;0.50;;;10.00;99.90;;;;;;6277997;22;20025;-90
2024/02/18 03:29:00;;;;;;;3.42;0.70;;;10.00;99.90;;;;;;6277844;22;20064;-89
2024/02/18 03:31:26;;;;;;;3.38;0.70;;;10.00;99.90;;;;;;6303831;22;20043;-90
2024/02/18 03:33:52;;;;;;;2.33;0.50;;;10.00;99.90;;;;;;6303801;22;20332;-90
2024/02/18 03:36:17;;;;;;;1.85;0.52;;;9.90;99.90;;;;;;6303215;22;20011;-90
2024/02/18 03:38:43;;;;;;;1.65;0.50;;;9.90;99.90;;;;;;6304009;22;20049;-90
2024/02/18 03:41:09;;;;;;;1.52;0.50;;;9.90;99.90;;;;;;6278100;22;20070;-90
2024/02/18 03:43:35;;;;;;;1.92;0.50;;;9.90;99.90;;;;;;6277751;22;20347;-90
2024/02/18 03:46:01;;;;;;;2.40;0.73;;;9.90;99.90;;;;;;6278106;22;20415;-89
2024/02/18 03:48:27;;;;;;;2.72;0.50;;;9.90;99.90;;;;;;6277932;22;20034;-91
2024/02/18 03:50:53;;;;;;;2.05;0.60;;;9.90;99.90;;;;;;6277749;22;20451;-90
2024/02/18 03:53:19;;;;;;;3.38;0.60;;;9.90;99.90;;;;;;6302733;22;20003;-90
2024/02/18 03:55:44;;;;;;;3.83;0.60;;;10.00;99.90;;;;;;6303698;22;20004;-90
2024/02/18 03:58:11;;;;;;;4.68;0.52;;;9.90;99.90;;;;;;6303582;22;20022;-91
2024/02/18 04:00:37;;;;;;;2.80;0.60;;;10.00;99.90;;;;;;6277756;22;19999;-90
2024/02/18 04:03:03;;;;;;;3.15;0.70;;;10.00;99.90;;;;;;6304113;22;20008;-91
2024/02/18 04:05:29;;;;;;;2.28;0.50;;;10.00;99.90;;;;;;6277974;22;20012;-90
2024/02/18 04:07:54;;;;;;;3.90;0.55;;;10.00;99.90;;;;;;6304083;22;20090;-91
2024/02/18 04:10:20;;;;;;;2.20;0.60;;;10.00;99.90;;;;;;6277637;22;20436;-90
2024/02/18 04:12:46;;;;;;;3.63;0.60;;;10.00;99.90;;;;;;6278016;22;20439;-90
2024/02/18 04:15:12;;;;;;;2.13;0.50;;;10.00;99.90;;;;;;6304002;22;20004;-92
2024/02/18 04:17:37;;;;;;;2.65;0.70;;;10.00;99.90;;;;;;6303465;22;20459;-90
2024/02/18 04:20:03;;;;;;;3.55;0.70;;;10.00;99.90;;;;;;6278361;22;20006;-90
2024/02/18 04:22:29;;;;;;;6.75;0.90;;;10.00;99.90;;;;;;6277629;22;20094;-91
2024/02/18 04:24:54;;;;;;;3.83;0.60;;;10.10;99.90;;;;;;6303837;22;20027;-91
2024/02/18 04:27:20;;;;;;;3.08;0.60;;;10.10;99.90;;;;;;6277954;22;20060;-91
2024/02/18 04:29:46;;;;;;;3.45;0.60;;;10.00;99.90;;;;;;6277886;22;20060;-89
2024/02/18 04:32:13;;;;;;;2.70;0.60;;;10.00;99.90;;;;;;6278166;22;20026;-91
2024/02/18 04:34:38;;;;;;;4.65;0.70;;;10.00;99.90;;;;;;6303371;22;19995;-90
2024/02/18 04:37:04;;;;;;;4.53;0.60;;;10.00;99.90;;;;;;6278110;22;20015;-90
2024/02/18 04:39:30;;;;;;;2.53;0.50;;;10.00;99.90;;;;;;6277153;22;20011;-89
2024/02/18 04:41:55;;;;;;;3.00;0.50;;;10.00;99.90;;;;;;6278223;22;20015;-89
2024/02/18 04:44:21;;;;;;;4.13;0.80;;;10.00;99.90;;;;;;6277453;22;20033;-90
2024/02/18 04:46:47;;;;;;;3.45;0.73;;;10.00;99.90;;;;;;6303685;22;20003;-90
2024/02/18 04:49:14;;;;;;;4.35;0.90;;;10.00;99.90;;;;;;6303910;22;20003;-90
2024/02/18 04:51:39;;;;;;;4.50;0.95;;;10.00;99.90;;;;;;6303726;22;20030;-89
2024/02/18 04:54:05;;;;;;;3.63;1.17;;;10.00;99.90;;;;;;6277609;22;20424;-89
2024/02/18 04:56:31;;;;;;;4.38;1.20;;;10.10;99.90;;;;;;6277402;22;20436;-89
2024/02/18 04:58:57;;;;;;;3.25;0.60;;;10.00;99.90;;;;;;6303514;22;20382;-88
2024/02/18 05:01:22;;;;;;;5.15;0.77;;;10.00;99.90;;;;;;6277246;22;20003;-89
2024/02/18 05:03:48;;;;;;;3.40;0.80;;;10.00;99.90;;;;;;6277450;22;20452;-90
2024/02/18 05:06:13;;;;;;;5.00;0.95;;;9.90;99.90;;;;;;6277155;22;20034;-89
2024/02/18 05:08:39;;;;;;;4.90;1.00;;;9.90;99.90;;;;;;6277859;22;20011;-89
2024/02/18 05:11:05;;;;;;;2.97;0.82;;;9.90;99.90;;;;;;6303402;22;20007;-91
2024/02/18 05:13:30;;;;;;;4.95;0.90;;;9.80;99.90;;;;;;6277643;22;20012;-90
2024/02/18 05:15:56;;;;;;;4.03;0.90;;;9.80;99.90;;;;;;6303058;22;20007;-91
2024/02/18 05:18:22;;;;;;;2.53;0.70;;;9.70;99.90;;;;;;6303272;22;20018;-87
2024/02/18 05:20:48;;;;;;;3.45;0.90;;;9.70;99.90;;;;;;6301771;22;20395;-88
2024/02/18 05:23:14;;;;;;;3.65;0.60;;;9.70;99.90;;;;;;6302680;22;20030;-88
2024/02/18 05:25:40;;;;;;;3.17;0.82;;;9.70;99.90;;;;;;6276563;22;20437;-89
2024/02/18 05:28:07;;;;;;;4.53;0.70;;;9.60;99.90;;;;;;6302909;22;20003;-89
2024/02/18 05:30:33;;;;;;;4.38;0.75;;;9.60;99.90;;;;;;6302730;22;20046;-88
2024/02/18 05:32:59;;;;;;;5.93;1.00;;;9.60;99.90;;;;;;6303174;22;20022;-88
2024/02/18 05:35:24;;;;;;;3.50;0.95;;;9.50;99.90;;;;;;6276364;22;20007;-89
2024/02/18 05:37:51;;;;;;;5.63;0.70;;;9.50;99.90;;;;;;6302789;22;20087;-88
2024/02/18 05:40:17;;;;;;;3.03;0.70;;;9.50;99.90;;;;;;6276466;22;20010;-89
2024/02/18 05:42:43;;;;;;;2.22;0.75;;;9.50;99.90;;;;;;6304466;22;20007;-86
2024/02/18 05:45:10;;;;;;;2.58;0.50;;;9.40;99.90;;;;;;6302665;22;20347;-88
2024/02/18 05:47:35;;;;;;;3.25;0.70;;;9.40;99.90;;;;;;6303326;22;20026;-88
2024/02/18 05:50:01;;;;;;;2.80;0.60;;;9.40;99.90;;;;;;6302511;22;20021;-88
2024/02/18 05:52:27;;;;;;;3.75;0.68;;;9.40;99.90;;;;;;6304250;22;20007;-89
2024/02/18 05:54:52;;;;;;;3.25;1.40;;;9.40;99.90;;;;;;6302365;22;20010;-89
2024/02/18 05:57:18;;;;;;;4.28;0.70;;;9.40;99.90;;;;;;6302349;22;20543;-88
2024/02/18 05:59:44;;;;;;;3.13;0.70;;;9.30;99.90;;;;;;6302261;22;20457;-89
2024/02/18 06:02:10;;;;;;;3.20;0.70;;;9.30;99.90;;;;;;6303295;22;20400;-88
2024/02/18 06:04:36;;;;;;;2.92;1.05;;;9.30;99.90;;;;;;6276407;22;20191;-88
2024/02/18 06:07:01;;;;;;;5.60;1.85;;;9.30;99.90;;;;;;6277064;22;20436;-88
2024/02/18 06:09:27;;;;;;;2.97;0.80;;;9.30;99.90;;;;;;6276562;22;20003;-88
2024/02/18 06:11:53;;;;;;;3.58;0.98;;;9.30;99.90;;;;;;6302955;22;20064;-89
2024/02/18 06:14:19;;;;;;;5.88;1.30;;;9.30;99.90;;;;;;6302286;22;20029;-88
2024/02/18 06:16:45;;;;;;;4.55;0.80;;;9.30;99.90;;;;;;6276759;22;20004;-88
2024/02/18 06:19:10;;;;;;;3.50;1.17;;;9.30;99.90;;;;;;6276216;22;20118;-90
2024/02/18 06:21:36;;;;;;;4.50;0.82;;;9.20;99.90;;;;;;6304282;22;20195;-89
2024/02/18 06:24:02;;;;;;;5.80;0.90;;;9.20;99.90;;;;;;6277366;22;20008;-88
2024/02/18 06:26:28;;;;;;;3.35;0.98;;;9.20;99.90;;;;;;6303739;22;20015;-88
2024/02/18 06:28:57;;;;;;;3.65;0.65;;;9.20;99.90;;;;;;6302939;22;20466;-87
2024/02/18 06:31:23;;;;;;;3.33;0.68;;;9.20;99.90;;;;;;6276452;22;20011;-88
2024/02/18 06:33:49;;;;;;;3.25;0.60;;;9.20;99.90;;;;;;6302365;22;20061;-87
2024/02/18 06:36:15;;;;;;;3.08;0.70;;;9.20;99.90;;;;;;6302096;22;20007;-88
2024/02/18 06:38:42;;;;;;;5.60;0.85;;;9.20;99.90;;;;;;6276991;22;20015;-88
2024/02/18 06:41:08;;;;;;;6.30;1.15;;;9.20;99.90;;;;;;6303462;22;20015;-86
2024/02/18 06:43:34;;;;;;;3.38;0.73;;;9.20;99.90;;;;;;6277101;22;20011;-88
2024/02/18 06:45:59;;;;;;;3.22;0.68;;;9.20;99.90;;;;;;6303012;22;20038;-90
2024/02/18 06:48:25;;;;;;;1.70;0.60;;;9.20;99.90;;;;;;6301825;22;20431;-92
2024/02/18 06:50:50;;;;;;;4.63;0.70;;;9.20;99.90;;;;;;6276732;22;20026;-88
2024/02/18 06:53:16;;;;;;;4.35;0.70;;;9.20;99.90;;;;;;6275931;22;20023;-87
2024/02/18 06:55:42;;;;;;;4.75;0.60;;;9.20;99.90;;;;;;6274844;22;20007;-88
2024/02/18 06:58:08;;;;;;;3.50;0.60;;;9.20;99.90;;;;;;6275228;22;20090;-89
2024/02/18 07:00:34;;;;;;;2.65;0.80;;;9.20;99.90;;;;;;6272886;22;20011;-90
2024/02/18 07:03:00;;;;;;;3.72;0.60;;;9.20;99.90;;;;;;6274454;22;20014;-89
2024/02/18 07:05:26;;;;;;;2.17;0.57;;;9.20;99.90;;;;;;6300848;22;20141;-89
2024/02/18 07:07:51;;;;;;;2.53;0.50;;;9.20;99.90;;;;;;6301147;22;20323;-89
2024/02/18 07:10:17;;;;;;;4.32;0.70;;;9.20;99.90;;;;;;6299800;22;20497;-89
2024/02/18 07:12:43;;;;;;;5.15;0.73;;;9.20;99.90;;;;;;6301073;22;20012;-89
2024/02/18 07:15:10;;;;;;;2.75;0.50;;;9.10;99.90;;;;;;6299123;22;20082;-90
2024/02/18 07:17:36;;;;;;;2.75;0.60;;;9.10;99.90;;;;;;6300060;22;20026;-90
2024/02/18 07:20:01;;;;;;;5.03;0.90;;;9.10;99.90;;;;;;6300368;22;20109;-88
2024/02/18 07:22:27;;;;;;;3.60;0.60;;;9.10;99.90;;;;;;6273426;22;20011;-90
2024/02/18 07:24:53;;;;;;;4.20;0.70;;;9.10;99.90;;;;;;6274319;22;20010;-90
2024/02/18 07:27:19;;;;;;;3.67;0.60;;;9.10;99.90;;;;;;6301800;22;20038;-89
2024/02/18 07:29:44;;;;;;;3.45;0.70;;;9.10;99.90;;;;;;6301667;22;20014;-90
2024/02/18 07:32:10;;;;;;;3.35;0.70;;;9.10;99.90;;;;;;6275528;22;20007;-89
2024/02/18 07:34:36;;;;;;;3.08;0.60;;;9.10;99.90;;;;;;6276101;22;20343;-91
2024/02/18 07:37:01;;;;;;;5.97;1.23;;;9.10;99.90;;;;;;6302067;22;20007;-89
2024/02/18 07:39:29;;;;;;;3.55;0.90;;;9.10;99.90;;;;;;6301490;22;20007;-90
2024/02/18 07:41:54;;;;;;;4.72;0.90;;;9.10;99.90;;;;;;6302175;22;20018;-90
2024/02/18 07:44:20;;;;;;;5.00;1.05;;;9.10;99.90;;;;;;6276247;22;20007;-90
2024/02/18 07:46:46;;;;;;;6.57;1.25;;;9.10;99.90;;;;;;6276281;22;20079;-90
2024/02/18 07:49:15;;;;;;;5.03;1.30;;;9.10;99.90;;;;;;6276460;22;20068;-91
2024/02/18 07:51:41;;;;;;;3.75;1.05;;;9.10;99.90;;;;;;6302475;22;20082;-90
2024/02/18 07:54:07;;;;;;;4.10;0.90;;;9.00;99.90;;;;;;6301910;22;20034;-91
2024/02/18 07:56:32;;;;;;;3.97;0.98;;;9.00;99.90;;;;;;6301413;22;20021;-90
2024/02/18 07:58:58;;;;;;;2.88;0.60;;;9.00;99.90;;;;;;6275977;22;20003;-90
2024/02/18 08:01:24;;;;;;;3.95;0.93;;;9.00;99.90;;;;;;6275382;22;20003;-90
2024/02/18 08:03:52;;;;;;;4.18;0.82;;;9.00;99.90;;;;;;6278665;22;20011;-90
2024/02/18 08:06:25;;;;;;;3.03;0.77;;;9.00;99.90;;;;;;6304969;22;20421;-91
2024/02/18 08:08:56;;;;;;;2.67;0.70;;;9.00;99.90;;;;;;6280121;22;20094;-91
2024/02/18 08:11:22;;;;;;;4.47;0.90;;;9.00;99.90;;;;;;6278672;22;20031;-92
2024/02/18 08:13:48;;;;;;;3.80;0.70;;;9.00;99.90;;;;;;6279769;22;20012;-91
2024/02/18 08:16:14;;;;;;;3.35;0.82;;;9.00;99.90;;;;;;6277868;22;19999;-93
2024/02/18 08:18:40;;;;;;;6.47;1.15;;;9.00;99.90;;;;;;6277875;22;20336;-91
2024/02/18 08:21:06;;;;;;;4.25;1.10;;;8.90;99.90;;;;;;6275570;22;20044;-91
2024/02/18 08:23:31;;;;;;;4.38;0.70;;;8.90;99.90;;;;;;6276208;22;20055;-90
2024/02/18 08:25:57;;;;;;;4.07;1.10;;;9.00;99.90;;;;;;6302596;22;20018;-91
2024/02/18 08:28:23;;;;;;;4.20;0.70;;;8.90;99.90;;;;;;6276084;22;20077;-91
2024/02/18 08:30:49;;;;;;;4.15;0.85;;;8.90;99.90;;;;;;6302453;22;20432;-90
2024/02/18 08:33:14;;;;;;;1.73;0.60;;;8.90;99.90;;;;;;6275460;22;20030;-91
2024/02/18 08:35:41;;;;;;;4.25;1.00;;;8.90;99.90;;;;;;6302312;22;20014;-89
2024/02/18 08:38:07;;;;;;;2.72;0.90;;;8.90;99.90;;;;;;6276109;22;20435;-91
2024/02/18 08:40:32;;;;;;;2.97;0.98;;;8.80;99.90;;;;;;6276059;22;20038;-91
2024/02/18 08:42:58;;;;;;;3.33;0.75;;;8.80;99.90;;;;;;6275785;22;20010;-91
2024/02/18 08:45:24;;;;;;;2.72;0.55;;;8.90;99.90;;;;;;6302567;22;20007;-90
2024/02/18 08:47:50;;;;;;;2.55;0.70;;;8.90;99.90;;;;;;6302552;22;20455;-91
2024/02/18 08:50:15;;;;;;;1.63;0.55;;;8.80;99.90;;;;;;6275645;22;20412;-92
2024/02/18 08:52:41;;;;;;;4.00;1.17;;;8.90;99.90;;;;;;6301447;22;20003;-91
2024/02/18 08:55:07;;;;;;;3.50;0.90;;;8.80;99.90;;;;;;6301692;22;20003;-92
2024/02/18 08:57:32;;;;;;;4.70;0.90;;;8.80;99.90;;;;;;6275744;22;20101;-91
2024/02/18 09:00:01;;;;;;;3.45;0.60;;;8.80;99.90;;;;;;6302876;22;20014;-91
2024/02/18 09:02:26;;;;;;;2.55;0.65;;;8.80;99.90;;;;;;6275550;22;20521;-90
2024/02/18 09:04:52;;;;;;;3.47;0.50;;;8.80;99.90;;;;;;6275434;22;20003;-92
2024/02/18 09:07:18;;;;;;;2.42;0.50;;;8.80;99.90;;;;;;6301506;22;20089;-92
2024/02/18 09:09:44;;;;;;;3.63;0.80;;;8.80;99.90;;;;;;6276689;22;20031;-92
2024/02/18 09:12:10;;;;;;;3.08;0.98;;;8.80;99.90;;;;;;6303445;22;20018;-93
2024/02/18 09:14:35;;;;;;;2.92;0.68;;;8.80;99.90;;;;;;6304024;22;20071;-92
2024/02/18 09:17:02;;;;;;;4.35;0.70;;;8.80;99.90;;;;;;6302269;22;20011;-94
2024/02/18 09:19:27;;;;;;;3.47;0.60;;;8.90;99.90;;;;;;6276372;22;20428;-92
2024/02/18 09:21:53;;;;;;;1.95;0.40;;;8.90;99.90;;;;;;6304476;22;20010;-91
2024/02/18 09:24:19;;;;;;;2.60;0.60;;;8.80;99.90;;;;;;6276948;22;20057;-94
2024/02/18 09:26:45;;;;;;;2.75;0.40;;;8.80;99.90;;;;;;6301793;22;20372;-91
2024/02/18 09:29:10;;;;;;;2.25;0.50;;;8.80;99.90;;;;;;6278879;22;20497;-92
2024/02/18 09:31:36;;;;;;;1.98;0.40;;;8.80;99.90;;;;;;6304671;22;20072;-91
2024/02/18 09:34:02;;;;;;;4.25;0.55;;;8.80;99.90;;;;;;6279612;22;20030;-92
2024/02/18 09:36:28;;;;;;;7.00;0.60;;;8.80;99.90;;;;;;6278537;22;20060;-91
2024/02/18 09:38:54;;;;;;;2.47;0.50;;;8.80;99.90;;;;;;6304488;22;20011;-91
2024/02/18 09:41:23;;;;;;;4.10;0.52;;;8.80;99.90;;;;;;6278358;22;20015;-90
2024/02/18 09:43:51;;;;;;;4.93;0.87;;;8.80;99.90;;;;;;6279397;22;20007;-92
2024/02/18 09:46:20;;;;;;;5.85;1.25;;;8.70;99.90;;;;;;6273723;22;20017;-91
2024/02/18 09:48:46;;;;;;;4.43;0.65;;;8.70;99.90;;;;;;6277344;22;20014;-89
2024/02/18 09:51:15;;;;;;;3.50;0.73;;;8.80;99.90;;;;;;6277236;22;20008;-92
2024/02/18 09:53:41;;;;;;;3.17;0.82;;;8.80;99.90;;;;;;6304524;22;20091;-92
2024/02/18 09:56:07;;;;;;;4.50;0.88;;;8.80;99.90;;;;;;6277386;22;20012;-92
2024/02/18 09:58:33;;;;;;;2.33;0.50;;;8.80;99.90;;;;;;6302163;22;20094;-90
2024/02/18 10:01:01;;;;;;;3.92;0.82;;;8.80;99.90;;;;;;6285732;22;20023;-94
2024/02/18 10:03:27;;;;;;;2.22;0.75;;;8.80;99.90;;;;;;6328113;22;20019;-91
2024/02/18 10:05:54;;;;;;;4.07;0.70;;;8.80;99.90;;;;;;6277039;22;20007;-92
2024/02/18 10:08:20;;;;;;;7.10;1.42;;;8.80;99.90;;;;;;6276478;22;20023;-90
2024/02/18 10:10:46;;;;;;;3.83;0.63;;;8.70;99.90;;;;;;6276567;22;20013;-93
2024/02/18 10:13:12;;;;;;;2.25;0.70;;;8.70;99.90;;;;;;6276293;22;20019;-91
2024/02/18 10:15:38;;;;;;;1.48;0.40;;;8.70;99.90;;;;;;6276745;22;20008;-90
2024/02/18 10:18:07;;;;;;;1.92;0.40;;;8.80;99.90;;;;;;6276183;22;20110;-92
2024/02/18 10:20:33;;;;;;;3.83;0.57;;;8.80;99.90;;;;;;6276833;22;20003;-92
2024/02/18 10:22:58;;;;;;;3.28;0.50;;;8.80;99.90;;;;;;6303892;22;19999;-89
2024/02/18 10:25:24;;;;;;;2.22;0.50;;;8.80;99.90;;;;;;6301489;22;20002;-92
2024/02/18 10:27:56;;;;;;;3.47;0.55;;;8.80;99.90;;;;;;6301887;22;20078;-92
2024/02/18 10:30:21;;;;;;;4.95;0.50;;;8.90;99.90;;;;;;6274975;22;20014;-91
2024/02/18 10:32:47;;;;;;;3.95;0.50;;;8.80;99.90;;;;;;6302875;22;20043;-92
2024/02/18 10:35:13;;;;;;;2.85;0.60;;;8.90;99.90;;;;;;6304105;22;20003;-92
2024/02/18 10:37:40;;;;;;;1.40;0.70;;;8.80;99.90;;;;;;6276744;22;20027;-91
2024/02/18 10:40:14;;;;;;;3.42;0.50;;;8.90;99.90;;;;;;6275557;22;20011;-90
2024/02/18 10:42:51;;;;;;;2.03;0.50;;;8.90;99.90;;;;;;6276240;22;20033;-92
2024/02/18 10:45:18;;;;;;;1.70;0.50;;;8.80;99.90;;;;;;6302730;22;20007;-92
2024/02/18 10:47:48;;;;;;;2.17;0.50;;;8.80;99.90;;;;;;6276101;22;20689;-91
2024/02/18 10:50:17;;;;;;;3.13;0.45;;;8.80;99.90;;;;;;6276407;22;20009;-91
2024/02/18 10:53:04;;;;;;;3.00;0.70;;;8.80;99.90;;;;;;6276525;22;20017;-91
2024/02/18 10:55:56;;;;;;;3.17;0.43;;;8.90;99.90;;;;;;6275515;22;20015;-91
2024/02/18 10:58:37;;;;;;;1.77;0.50;;;8.80;99.90;;;;;;6269004;22;20037;-91
2024/02/18 11:01:07;;;;;;;1.95;0.40;;;8.90;99.90;;;;;;6301571;22;20474;-91
2024/02/18 11:03:42;;;;;;;1.95;0.40;;;8.90;99.90;;;;;;6303933;22;20018;-91
2024/02/18 11:06:09;;;;;;;4.53;0.50;;;8.90;99.90;;;;;;6304168;22;20356;-91
2024/02/18 11:08:39;;;;;;;4.50;0.50;;;8.80;99.90;;;;;;6305867;22;20011;-91
2024/02/18 11:11:07;;;;;;;2.75;0.40;;;8.80;99.90;;;;;;6304404;22;20014;-91
2024/02/18 11:13:35;;;;;;;2.65;0.40;;;8.80;99.90;;;;;;6304263;22;20007;-90
2024/02/18 11:16:01;;;;;;;3.22;0.60;;;8.80;99.90;;;;;;6303630;22;20003;-91
2024/02/18 11:18:29;;;;;;;4.45;0.50;;;8.70;99.90;;;;;;6303562;22;20447;-90
2024/02/18 11:20:55;;;;;;;4.68;0.45;;;8.80;99.90;;;;;;6278283;22;20041;-92
2024/02/18 11:23:21;;;;;;;2.90;0.40;;;8.90;99.90;;;;;;6277698;22;20007;-91
2024/02/18 11:25:46;;;;;;;3.30;0.43;;;8.90;99.90;;;;;;6304407;22;20007;-91
2024/02/18 11:28:12;;;;;;;2.55;0.82;;;9.00;99.90;;;;;;6304742;22;20447;-90
2024/02/18 11:30:38;;;;;;;4.38;0.60;;;8.90;99.90;;;;;;6276896;22;20278;-90
2024/02/18 11:33:05;;;;;;;2.55;0.68;;;8.90;99.90;;;;;;6304088;22;20037;-91
2024/02/18 11:35:30;;;;;;;5.60;0.70;;;8.80;99.90;;;;;;6276347;22;20049;-91
2024/02/18 11:37:57;;;;;;;3.83;0.63;;;8.80;99.90;;;;;;6278085;22;20023;-91
2024/02/18 11:40:23;;;;;;;1.55;0.50;;;8.80;99.90;;;;;;6303005;22;20015;-90
2024/02/18 11:42:49;;;;;;;1.33;0.43;;;8.90;99.90;;;;;;6278349;22;20003;-91
2024/02/18 11:45:17;;;;;;;1.17;0.38;;;8.90;99.90;;;;;;6303027;22;20231;-90
2024/02/18 11:47:52;;;;;;;2.50;0.47;;;8.90;99.90;;;;;;6277886;22;20041;-90
2024/02/18 11:50:22;;;;;;;2.40;0.47;;;8.90;99.90;;;;;;6329114;22;20005;-90
2024/02/18 11:52:49;;;;;;;2.55;0.40;;;8.80;99.90;;;;;;6278138;22;20015;-90
2024/02/18 11:55:19;;;;;;;1.70;0.40;;;8.80;99.90;;;;;;6303618;22;19999;-92
2024/02/18 11:57:46;;;;;;;2.75;0.40;;;8.80;99.90;;;;;;6304099;22;20068;-91
2024/02/18 12:00:13;;;;;;;1.52;0.50;;;8.80;99.90;;;;;;6277458;22;20003;-92
2024/02/18 12:02:41;;;;;;;2.22;0.50;;;8.80;99.90;;;;;;6277756;22;20085;-92
2024/02/18 12:05:10;;;;;;;2.85;0.55;;;8.70;99.90;;;;;;6277780;22;20620;-91
2024/02/18 12:07:38;;;;;;;1.60;0.40;;;8.80;99.90;;;;;;6277812;22;20011;-91
2024/02/18 12:10:04;;;;;;;4.38;0.50;;;8.80;99.90;;;;;;6279399;22;20007;-94
2024/02/18 12:12:31;;;;;;;4.68;0.50;;;8.70;99.90;;;;;;6279578;22;20042;-91
2024/02/18 12:14:57;;;;;;;2.80;0.50;;;8.70;99.90;;;;;;6279646;22;20003;-93
2024/02/18 12:17:23;;;;;;;4.60;0.70;;;8.70;99.90;;;;;;6305045;22;20007;-92
2024/02/18 12:19:53;;;;;;;2.55;0.50;;;8.70;99.90;;;;;;6305035;22;20144;-91
2024/02/18 12:22:27;;;;;;;3.72;0.47;;;8.70;99.90;;;;;;6277544;22;20007;-92
2024/02/18 12:24:53;;;;;;;2.13;0.55;;;8.70;99.90;;;;;;6278767;22;20035;-92
2024/02/18 12:27:20;;;;;;;3.03;0.50;;;8.70;99.90;;;;;;6305256;22;20007;-95
2024/02/18 12:29:53;;;;;;;3.13;0.60;;;8.70;99.90;;;;;;6305535;22;20098;-94
2024/02/18 12:32:19;;;;;;;2.60;0.60;;;8.60;99.90;;;;;;6279206;22;20014;-94
2024/02/18 12:34:47;;;;;;;3.53;0.60;;;8.60;99.90;;;;;;6278868;22;20007;-92
2024/02/18 12:37:13;;;;;;;4.15;1.52;;;8.60;99.90;;;;;;6301725;22;20007;-92
2024/02/18 12:39:39;;;;;;;4.25;0.50;;;8.70;99.90;;;;;;6302510;22;20014;-93
2024/02/18 12:42:05;;;;;;;1.75;0.47;;;8.60;99.90;;;;;;6303090;22;20042;-94
2024/02/18 12:44:33;;;;;;;2.67;0.40;;;8.60;99.90;;;;;;6276550;22;20102;-94
2024/02/18 12:47:00;;;;;;;2.80;0.60;;;8.60;99.90;;;;;;6303516;22;20083;-93
2024/02/18 12:49:30;;;;;;;2.15;0.50;;;8.70;99.90;;;;;;6276131;22;20003;-93
2024/02/18 12:52:10;;;;;;;5.22;0.70;;;8.70;99.90;;;;;;6303491;22;20011;-93